sensor_id;sensor_type;location;lat;lon;timestamp;P1;durP1;ratioP1;P2;durP2;ratioP2
9809;SDS011;4944;52.514;13.192;2024-03-08T00:02:23;21.10;;;12.70;;
9809;SDS011;4944;52.514;13.192;2024-03-08T00:04:50;15.23;;;11.80;;
9809;SDS011;4944;52.514;13.192;2024-03-08T00:07:18;21.07;;;12.17;;
9809;SDS011;4944;52.514;13.192;2024-03-08T00:09:45;16.50;;;12.47;;
9809;SDS011;4944;52.514;13.192;2024-03-08T00:12:13;17.40;;;13.13;;
9809;SDS011;4944;52.514;13.192;2024-03-08T00:14:39;17.77;;;11.73;;
9809;SDS011;4944;52.514;13.192;2024-03-08T00:17:06;16.47;;;12.10;;
9809;SDS011;4944;52.514;13.192;2024-03-08T00:19:34;17.03;;;12.13;;
9809;SDS011;4944;52.514;13.192;2024-03-08T00:22:02;16.73;;;12.07;;
9809;SDS011;4944;52.514;13.192;2024-03-08T00:24:30;16.10;;;11.83;;
9809;SDS011;4944;52.514;13.192;2024-03-08T00:26:57;16.10;;;12.47;;
9809;SDS011;4944;52.514;13.192;2024-03-08T00:29:24;20.40;;;13.03;;
9809;SDS011;4944;52.514;13.192;2024-03-08T00:31:51;14.77;;;11.97;;
9809;SDS011;4944;52.514;13.192;2024-03-08T00:34:18;14.67;;;11.83;;
9809;SDS011;4944;52.514;13.192;2024-03-08T00:36:45;17.47;;;12.57;;
9809;SDS011;4944;52.514;13.192;2024-03-08T00:39:12;15.17;;;12.53;;
9809;SDS011;4944;52.514;13.192;2024-03-08T00:41:40;15.13;;;12.17;;
9809;SDS011;4944;52.514;13.192;2024-03-08T00:44:09;16.43;;;12.03;;
9809;SDS011;4944;52.514;13.192;2024-03-08T00:46:36;16.70;;;12.13;;
9809;SDS011;4944;52.514;13.192;2024-03-08T00:49:03;17.20;;;12.53;;
9809;SDS011;4944;52.514;13.192;2024-03-08T00:51:31;17.73;;;12.77;;
9809;SDS011;4944;52.514;13.192;2024-03-08T00:53:58;17.47;;;12.60;;
9809;SDS011;4944;52.514;13.192;2024-03-08T00:56:25;16.90;;;13.00;;
9809;SDS011;4944;52.514;13.192;2024-03-08T00:58:54;19.37;;;12.33;;
9809;SDS011;4944;52.514;13.192;2024-03-08T01:01:21;18.97;;;13.00;;
9809;SDS011;4944;52.514;13.192;2024-03-08T01:03:49;16.77;;;12.63;;
9809;SDS011;4944;52.514;13.192;2024-03-08T01:06:17;18.30;;;12.93;;
9809;SDS011;4944;52.514;13.192;2024-03-08T01:08:44;15.80;;;11.37;;
9809;SDS011;4944;52.514;13.192;2024-03-08T01:11:12;17.87;;;12.37;;
9809;SDS011;4944;52.514;13.192;2024-03-08T01:13:40;18.43;;;13.10;;
9809;SDS011;4944;52.514;13.192;2024-03-08T01:16:08;17.70;;;12.97;;
9809;SDS011;4944;52.514;13.192;2024-03-08T01:18:35;17.33;;;13.10;;
9809;SDS011;4944;52.514;13.192;2024-03-08T01:21:02;18.83;;;12.73;;
9809;SDS011;4944;52.514;13.192;2024-03-08T01:23:32;19.00;;;12.73;;
9809;SDS011;4944;52.514;13.192;2024-03-08T01:25:59;18.60;;;13.00;;
9809;SDS011;4944;52.514;13.192;2024-03-08T01:28:27;17.63;;;12.33;;
9809;SDS011;4944;52.514;13.192;2024-03-08T01:30:54;17.47;;;12.53;;
9809;SDS011;4944;52.514;13.192;2024-03-08T01:33:23;17.00;;;12.10;;
9809;SDS011;4944;52.514;13.192;2024-03-08T01:35:51;15.97;;;12.57;;
9809;SDS011;4944;52.514;13.192;2024-03-08T01:38:18;18.00;;;12.67;;
9809;SDS011;4944;52.514;13.192;2024-03-08T01:40:46;19.03;;;13.53;;
9809;SDS011;4944;52.514;13.192;2024-03-08T01:43:19;18.63;;;12.53;;
9809;SDS011;4944;52.514;13.192;2024-03-08T01:45:49;19.07;;;12.13;;
9809;SDS011;4944;52.514;13.192;2024-03-08T01:48:17;19.80;;;12.93;;
9809;SDS011;4944;52.514;13.192;2024-03-08T01:50:48;17.37;;;12.47;;
9809;SDS011;4944;52.514;13.192;2024-03-08T01:53:16;17.13;;;11.97;;
9809;SDS011;4944;52.514;13.192;2024-03-08T01:55:44;16.70;;;12.40;;
9809;SDS011;4944;52.514;13.192;2024-03-08T01:58:12;18.17;;;12.27;;
9809;SDS011;4944;52.514;13.192;2024-03-08T02:00:40;16.73;;;12.70;;
9809;SDS011;4944;52.514;13.192;2024-03-08T02:03:09;16.27;;;11.97;;
9809;SDS011;4944;52.514;13.192;2024-03-08T02:05:37;16.37;;;12.27;;
9809;SDS011;4944;52.514;13.192;2024-03-08T02:08:07;15.83;;;12.30;;
9809;SDS011;4944;52.514;13.192;2024-03-08T02:10:37;16.07;;;12.80;;
9809;SDS011;4944;52.514;13.192;2024-03-08T02:13:05;18.00;;;12.70;;
9809;SDS011;4944;52.514;13.192;2024-03-08T02:18:17;16.23;;;12.33;;
9809;SDS011;4944;52.514;13.192;2024-03-08T02:20:46;17.33;;;12.83;;
9809;SDS011;4944;52.514;13.192;2024-03-08T02:23:13;15.23;;;12.07;;
9809;SDS011;4944;52.514;13.192;2024-03-08T02:25:40;18.73;;;12.50;;
9809;SDS011;4944;52.514;13.192;2024-03-08T02:28:08;17.13;;;12.63;;
9809;SDS011;4944;52.514;13.192;2024-03-08T02:30:36;15.77;;;11.90;;
9809;SDS011;4944;52.514;13.192;2024-03-08T02:33:03;14.60;;;11.57;;
9809;SDS011;4944;52.514;13.192;2024-03-08T02:35:30;16.57;;;12.53;;
9809;SDS011;4944;52.514;13.192;2024-03-08T02:37:58;16.30;;;11.80;;
9809;SDS011;4944;52.514;13.192;2024-03-08T02:40:25;16.57;;;12.40;;
9809;SDS011;4944;52.514;13.192;2024-03-08T02:42:52;16.90;;;12.37;;
9809;SDS011;4944;52.514;13.192;2024-03-08T02:45:19;18.47;;;12.90;;
9809;SDS011;4944;52.514;13.192;2024-03-08T02:47:46;17.50;;;12.17;;
9809;SDS011;4944;52.514;13.192;2024-03-08T02:50:14;15.83;;;12.13;;
9809;SDS011;4944;52.514;13.192;2024-03-08T02:52:41;16.43;;;12.67;;
9809;SDS011;4944;52.514;13.192;2024-03-08T02:55:10;16.67;;;12.40;;
9809;SDS011;4944;52.514;13.192;2024-03-08T02:57:40;18.53;;;12.83;;
9809;SDS011;4944;52.514;13.192;2024-03-08T03:00:07;19.57;;;12.47;;
9809;SDS011;4944;52.514;13.192;2024-03-08T03:02:35;16.07;;;11.93;;
9809;SDS011;4944;52.514;13.192;2024-03-08T03:05:02;18.83;;;12.20;;
9809;SDS011;4944;52.514;13.192;2024-03-08T03:07:31;16.47;;;12.17;;
9809;SDS011;4944;52.514;13.192;2024-03-08T03:09:58;15.70;;;12.47;;
9809;SDS011;4944;52.514;13.192;2024-03-08T03:12:28;16.27;;;12.67;;
9809;SDS011;4944;52.514;13.192;2024-03-08T03:14:55;18.70;;;11.87;;
9809;SDS011;4944;52.514;13.192;2024-03-08T03:17:22;15.67;;;11.43;;
9809;SDS011;4944;52.514;13.192;2024-03-08T03:19:49;17.10;;;11.70;;
9809;SDS011;4944;52.514;13.192;2024-03-08T03:22:16;17.93;;;12.37;;
9809;SDS011;4944;52.514;13.192;2024-03-08T03:24:43;16.27;;;12.73;;
9809;SDS011;4944;52.514;13.192;2024-03-08T03:27:11;18.83;;;12.37;;
9809;SDS011;4944;52.514;13.192;2024-03-08T03:29:40;18.23;;;13.00;;
9809;SDS011;4944;52.514;13.192;2024-03-08T03:32:10;17.53;;;12.53;;
9809;SDS011;4944;52.514;13.192;2024-03-08T03:34:37;17.70;;;11.87;;
9809;SDS011;4944;52.514;13.192;2024-03-08T03:37:04;17.37;;;12.70;;
9809;SDS011;4944;52.514;13.192;2024-03-08T03:39:32;16.93;;;12.33;;
9809;SDS011;4944;52.514;13.192;2024-03-08T03:41:59;19.70;;;13.40;;
9809;SDS011;4944;52.514;13.192;2024-03-08T03:44:27;17.43;;;12.37;;
9809;SDS011;4944;52.514;13.192;2024-03-08T03:46:55;17.40;;;11.70;;
9809;SDS011;4944;52.514;13.192;2024-03-08T03:49:22;20.30;;;12.47;;
9809;SDS011;4944;52.514;13.192;2024-03-08T03:51:49;18.43;;;13.40;;
9809;SDS011;4944;52.514;13.192;2024-03-08T03:54:15;18.63;;;12.43;;
9809;SDS011;4944;52.514;13.192;2024-03-08T03:56:42;19.13;;;12.63;;
9809;SDS011;4944;52.514;13.192;2024-03-08T03:59:10;17.93;;;12.87;;
9809;SDS011;4944;52.514;13.192;2024-03-08T04:01:41;16.90;;;12.63;;
9809;SDS011;4944;52.514;13.192;2024-03-08T04:04:09;17.67;;;12.30;;
9809;SDS011;4944;52.514;13.192;2024-03-08T04:06:37;19.10;;;12.83;;
9809;SDS011;4944;52.514;13.192;2024-03-08T04:09:04;15.70;;;11.07;;
9809;SDS011;4944;52.514;13.192;2024-03-08T04:11:31;17.30;;;12.20;;
9809;SDS011;4944;52.514;13.192;2024-03-08T04:13:58;17.60;;;13.37;;
9809;SDS011;4944;52.514;13.192;2024-03-08T04:16:27;15.43;;;12.53;;
9809;SDS011;4944;52.514;13.192;2024-03-08T04:18:54;16.70;;;12.20;;
9809;SDS011;4944;52.514;13.192;2024-03-08T04:21:22;17.90;;;13.00;;
9809;SDS011;4944;52.514;13.192;2024-03-08T04:23:49;17.43;;;12.53;;
9809;SDS011;4944;52.514;13.192;2024-03-08T04:26:16;15.70;;;12.60;;
9809;SDS011;4944;52.514;13.192;2024-03-08T04:28:43;19.50;;;13.13;;
9809;SDS011;4944;52.514;13.192;2024-03-08T04:31:10;17.80;;;12.83;;
9809;SDS011;4944;52.514;13.192;2024-03-08T04:33:36;19.10;;;12.60;;
9809;SDS011;4944;52.514;13.192;2024-03-08T04:36:04;17.83;;;12.60;;
9809;SDS011;4944;52.514;13.192;2024-03-08T04:38:34;17.77;;;12.57;;
9809;SDS011;4944;52.514;13.192;2024-03-08T04:41:03;16.10;;;12.77;;
9809;SDS011;4944;52.514;13.192;2024-03-08T04:43:30;18.67;;;13.63;;
9809;SDS011;4944;52.514;13.192;2024-03-08T04:45:57;22.37;;;12.80;;
9809;SDS011;4944;52.514;13.192;2024-03-08T04:48:24;17.83;;;13.20;;
9809;SDS011;4944;52.514;13.192;2024-03-08T04:50:53;16.60;;;13.20;;
9809;SDS011;4944;52.514;13.192;2024-03-08T04:53:20;17.17;;;12.50;;
9809;SDS011;4944;52.514;13.192;2024-03-08T04:55:49;18.23;;;13.23;;
9809;SDS011;4944;52.514;13.192;2024-03-08T04:58:16;23.00;;;13.57;;
9809;SDS011;4944;52.514;13.192;2024-03-08T05:00:43;18.43;;;12.57;;
9809;SDS011;4944;52.514;13.192;2024-03-08T05:03:10;17.43;;;12.77;;
9809;SDS011;4944;52.514;13.192;2024-03-08T05:05:37;19.63;;;13.10;;
9809;SDS011;4944;52.514;13.192;2024-03-08T05:08:04;19.90;;;13.73;;
9809;SDS011;4944;52.514;13.192;2024-03-08T05:10:31;19.03;;;13.60;;
9809;SDS011;4944;52.514;13.192;2024-03-08T05:13:00;23.90;;;14.10;;
9809;SDS011;4944;52.514;13.192;2024-03-08T05:15:26;17.83;;;12.80;;
9809;SDS011;4944;52.514;13.192;2024-03-08T05:17:53;20.57;;;13.80;;
9809;SDS011;4944;52.514;13.192;2024-03-08T05:20:21;21.27;;;14.80;;
9809;SDS011;4944;52.514;13.192;2024-03-08T05:22:47;19.70;;;13.73;;
9809;SDS011;4944;52.514;13.192;2024-03-08T05:25:14;23.87;;;14.67;;
9809;SDS011;4944;52.514;13.192;2024-03-08T05:27:42;23.37;;;14.80;;
9809;SDS011;4944;52.514;13.192;2024-03-08T05:30:11;23.67;;;15.23;;
9809;SDS011;4944;52.514;13.192;2024-03-08T05:32:40;22.23;;;14.77;;
9809;SDS011;4944;52.514;13.192;2024-03-08T05:35:09;22.90;;;14.87;;
9809;SDS011;4944;52.514;13.192;2024-03-08T05:37:37;22.43;;;15.17;;
9809;SDS011;4944;52.514;13.192;2024-03-08T05:40:04;23.77;;;15.43;;
9809;SDS011;4944;52.514;13.192;2024-03-08T05:42:34;21.50;;;14.70;;
9809;SDS011;4944;52.514;13.192;2024-03-08T05:45:01;23.00;;;15.70;;
9809;SDS011;4944;52.514;13.192;2024-03-08T05:47:29;21.87;;;15.20;;
9809;SDS011;4944;52.514;13.192;2024-03-08T05:49:56;23.27;;;15.40;;
9809;SDS011;4944;52.514;13.192;2024-03-08T05:52:23;22.63;;;14.73;;
9809;SDS011;4944;52.514;13.192;2024-03-08T05:54:51;22.53;;;15.83;;
9809;SDS011;4944;52.514;13.192;2024-03-08T05:57:18;24.87;;;15.77;;
9809;SDS011;4944;52.514;13.192;2024-03-08T05:59:45;20.63;;;14.43;;
9809;SDS011;4944;52.514;13.192;2024-03-08T06:02:13;21.70;;;14.97;;
9809;SDS011;4944;52.514;13.192;2024-03-08T06:04:45;21.03;;;15.40;;
9809;SDS011;4944;52.514;13.192;2024-03-08T06:07:13;22.90;;;15.40;;
9809;SDS011;4944;52.514;13.192;2024-03-08T06:09:39;24.73;;;14.93;;
9809;SDS011;4944;52.514;13.192;2024-03-08T06:12:10;24.60;;;15.70;;
9809;SDS011;4944;52.514;13.192;2024-03-08T06:14:37;21.13;;;14.77;;
9809;SDS011;4944;52.514;13.192;2024-03-08T06:17:04;22.33;;;14.77;;
9809;SDS011;4944;52.514;13.192;2024-03-08T06:19:32;20.93;;;14.60;;
9809;SDS011;4944;52.514;13.192;2024-03-08T06:22:02;22.47;;;14.00;;
9809;SDS011;4944;52.514;13.192;2024-03-08T06:24:30;19.57;;;14.20;;
9809;SDS011;4944;52.514;13.192;2024-03-08T06:26:57;20.93;;;14.30;;
9809;SDS011;4944;52.514;13.192;2024-03-08T06:29:24;18.50;;;13.73;;
9809;SDS011;4944;52.514;13.192;2024-03-08T06:31:51;22.20;;;14.57;;
9809;SDS011;4944;52.514;13.192;2024-03-08T06:34:18;21.37;;;14.67;;
9809;SDS011;4944;52.514;13.192;2024-03-08T06:36:45;24.07;;;15.53;;
9809;SDS011;4944;52.514;13.192;2024-03-08T06:39:13;22.17;;;15.60;;
9809;SDS011;4944;52.514;13.192;2024-03-08T06:41:40;22.97;;;14.93;;
9809;SDS011;4944;52.514;13.192;2024-03-08T06:44:09;21.90;;;14.70;;
9809;SDS011;4944;52.514;13.192;2024-03-08T06:46:36;20.50;;;14.83;;
9809;SDS011;4944;52.514;13.192;2024-03-08T06:49:03;21.53;;;14.80;;
9809;SDS011;4944;52.514;13.192;2024-03-08T06:51:32;22.30;;;16.07;;
9809;SDS011;4944;52.514;13.192;2024-03-08T06:53:59;21.17;;;15.10;;
9809;SDS011;4944;52.514;13.192;2024-03-08T06:56:27;23.63;;;15.57;;
9809;SDS011;4944;52.514;13.192;2024-03-08T06:58:54;24.00;;;15.07;;
9809;SDS011;4944;52.514;13.192;2024-03-08T07:01:21;21.30;;;14.80;;
9809;SDS011;4944;52.514;13.192;2024-03-08T07:03:48;22.83;;;15.20;;
9809;SDS011;4944;52.514;13.192;2024-03-08T07:06:17;27.20;;;14.70;;
9809;SDS011;4944;52.514;13.192;2024-03-08T07:08:45;23.50;;;15.47;;
9809;SDS011;4944;52.514;13.192;2024-03-08T07:11:13;20.53;;;15.30;;
9809;SDS011;4944;52.514;13.192;2024-03-08T07:13:44;20.77;;;15.07;;
9809;SDS011;4944;52.514;13.192;2024-03-08T07:16:11;21.00;;;14.80;;
9809;SDS011;4944;52.514;13.192;2024-03-08T07:18:38;20.53;;;14.80;;
9809;SDS011;4944;52.514;13.192;2024-03-08T07:21:08;20.43;;;14.73;;
9809;SDS011;4944;52.514;13.192;2024-03-08T07:23:35;21.30;;;15.57;;
9809;SDS011;4944;52.514;13.192;2024-03-08T07:26:28;20.00;;;14.23;;
9809;SDS011;4944;52.514;13.192;2024-03-08T07:28:57;19.73;;;14.77;;
9809;SDS011;4944;52.514;13.192;2024-03-08T07:31:25;27.17;;;14.07;;
9809;SDS011;4944;52.514;13.192;2024-03-08T07:34:03;20.17;;;14.27;;
9809;SDS011;4944;52.514;13.192;2024-03-08T07:36:32;19.07;;;13.60;;
9809;SDS011;4944;52.514;13.192;2024-03-08T07:39:00;19.23;;;13.60;;
9809;SDS011;4944;52.514;13.192;2024-03-08T07:41:27;17.07;;;12.47;;
9809;SDS011;4944;52.514;13.192;2024-03-08T07:43:54;19.13;;;13.70;;
9809;SDS011;4944;52.514;13.192;2024-03-08T07:46:22;17.17;;;12.53;;
9809;SDS011;4944;52.514;13.192;2024-03-08T07:48:49;19.37;;;13.17;;
9809;SDS011;4944;52.514;13.192;2024-03-08T07:51:16;17.07;;;12.70;;
9809;SDS011;4944;52.514;13.192;2024-03-08T07:53:43;18.23;;;13.00;;
9809;SDS011;4944;52.514;13.192;2024-03-08T07:56:10;19.53;;;12.63;;
9809;SDS011;4944;52.514;13.192;2024-03-08T07:58:38;15.67;;;12.20;;
9809;SDS011;4944;52.514;13.192;2024-03-08T08:01:06;18.40;;;13.37;;
9809;SDS011;4944;52.514;13.192;2024-03-08T08:03:35;19.87;;;13.30;;
9809;SDS011;4944;52.514;13.192;2024-03-08T08:06:03;17.00;;;12.63;;
9809;SDS011;4944;52.514;13.192;2024-03-08T08:08:30;16.87;;;12.90;;
9809;SDS011;4944;52.514;13.192;2024-03-08T08:10:57;18.07;;;13.37;;
9809;SDS011;4944;52.514;13.192;2024-03-08T08:13:24;17.40;;;13.43;;
9809;SDS011;4944;52.514;13.192;2024-03-08T08:15:53;16.60;;;12.80;;
9809;SDS011;4944;52.514;13.192;2024-03-08T08:18:19;17.77;;;13.83;;
9809;SDS011;4944;52.514;13.192;2024-03-08T08:20:51;23.17;;;14.43;;
9809;SDS011;4944;52.514;13.192;2024-03-08T08:23:18;18.43;;;13.80;;
9809;SDS011;4944;52.514;13.192;2024-03-08T08:25:45;18.40;;;13.60;;
9809;SDS011;4944;52.514;13.192;2024-03-08T08:28:15;20.73;;;13.43;;
9809;SDS011;4944;52.514;13.192;2024-03-08T08:30:42;17.10;;;13.73;;
9809;SDS011;4944;52.514;13.192;2024-03-08T08:33:09;19.23;;;12.77;;
9809;SDS011;4944;52.514;13.192;2024-03-08T08:35:36;15.30;;;12.43;;
9809;SDS011;4944;52.514;13.192;2024-03-08T08:38:05;17.30;;;12.37;;
9809;SDS011;4944;52.514;13.192;2024-03-08T08:40:32;15.83;;;12.27;;
9809;SDS011;4944;52.514;13.192;2024-03-08T08:43:01;16.93;;;12.20;;
9809;SDS011;4944;52.514;13.192;2024-03-08T08:45:29;15.50;;;11.80;;
9809;SDS011;4944;52.514;13.192;2024-03-08T08:47:56;14.40;;;11.53;;
9809;SDS011;4944;52.514;13.192;2024-03-08T08:50:25;13.80;;;10.73;;
9809;SDS011;4944;52.514;13.192;2024-03-08T08:52:54;15.30;;;11.57;;
9809;SDS011;4944;52.514;13.192;2024-03-08T08:55:22;15.97;;;11.60;;
9809;SDS011;4944;52.514;13.192;2024-03-08T08:57:50;13.70;;;10.60;;
9809;SDS011;4944;52.514;13.192;2024-03-08T09:00:18;14.97;;;11.23;;
9809;SDS011;4944;52.514;13.192;2024-03-08T09:02:45;13.83;;;11.10;;
9809;SDS011;4944;52.514;13.192;2024-03-08T09:05:13;16.03;;;12.17;;
9809;SDS011;4944;52.514;13.192;2024-03-08T09:07:42;15.13;;;10.97;;
9809;SDS011;4944;52.514;13.192;2024-03-08T09:10:10;16.50;;;12.63;;
9809;SDS011;4944;52.514;13.192;2024-03-08T09:12:40;15.53;;;12.10;;
9809;SDS011;4944;52.514;13.192;2024-03-08T09:15:07;18.33;;;12.17;;
9809;SDS011;4944;52.514;13.192;2024-03-08T09:17:36;15.67;;;12.23;;
9809;SDS011;4944;52.514;13.192;2024-03-08T09:20:05;19.00;;;13.23;;
9809;SDS011;4944;52.514;13.192;2024-03-08T09:22:33;17.13;;;13.20;;
9809;SDS011;4944;52.514;13.192;2024-03-08T09:25:00;16.67;;;12.67;;
9809;SDS011;4944;52.514;13.192;2024-03-08T09:27:28;18.03;;;13.60;;
9809;SDS011;4944;52.514;13.192;2024-03-08T09:29:56;17.57;;;14.07;;
9809;SDS011;4944;52.514;13.192;2024-03-08T09:32:23;18.03;;;13.53;;
9809;SDS011;4944;52.514;13.192;2024-03-08T09:34:50;18.43;;;13.07;;
9809;SDS011;4944;52.514;13.192;2024-03-08T09:37:17;18.33;;;13.80;;
9809;SDS011;4944;52.514;13.192;2024-03-08T09:39:44;17.17;;;13.37;;
9809;SDS011;4944;52.514;13.192;2024-03-08T09:42:11;19.30;;;14.57;;
9809;SDS011;4944;52.514;13.192;2024-03-08T09:44:39;18.07;;;14.20;;
9809;SDS011;4944;52.514;13.192;2024-03-08T09:47:11;15.93;;;13.10;;
9809;SDS011;4944;52.514;13.192;2024-03-08T09:49:40;16.07;;;12.97;;
9809;SDS011;4944;52.514;13.192;2024-03-08T09:52:08;20.30;;;13.73;;
9809;SDS011;4944;52.514;13.192;2024-03-08T09:54:37;16.93;;;13.00;;
9809;SDS011;4944;52.514;13.192;2024-03-08T09:57:04;16.57;;;12.97;;
9809;SDS011;4944;52.514;13.192;2024-03-08T09:59:34;15.37;;;12.43;;
9809;SDS011;4944;52.514;13.192;2024-03-08T10:02:14;15.67;;;13.43;;
9809;SDS011;4944;52.514;13.192;2024-03-08T10:04:42;18.53;;;13.57;;
9809;SDS011;4944;52.514;13.192;2024-03-08T10:07:11;16.30;;;13.47;;
9809;SDS011;4944;52.514;13.192;2024-03-08T10:09:38;17.87;;;13.53;;
9809;SDS011;4944;52.514;13.192;2024-03-08T10:12:07;19.70;;;13.17;;
9809;SDS011;4944;52.514;13.192;2024-03-08T10:14:38;17.30;;;12.80;;
9809;SDS011;4944;52.514;13.192;2024-03-08T10:17:07;15.03;;;12.07;;
9809;SDS011;4944;52.514;13.192;2024-03-08T10:19:35;16.80;;;12.17;;
9809;SDS011;4944;52.514;13.192;2024-03-08T10:22:02;14.67;;;11.33;;
9809;SDS011;4944;52.514;13.192;2024-03-08T10:24:29;19.10;;;11.23;;
9809;SDS011;4944;52.514;13.192;2024-03-08T10:26:59;13.93;;;11.43;;
9809;SDS011;4944;52.514;13.192;2024-03-08T10:29:29;13.37;;;11.97;;
9809;SDS011;4944;52.514;13.192;2024-03-08T10:31:57;15.70;;;11.27;;
9809;SDS011;4944;52.514;13.192;2024-03-08T10:34:24;12.67;;;11.30;;
9809;SDS011;4944;52.514;13.192;2024-03-08T10:36:52;13.33;;;10.60;;
9809;SDS011;4944;52.514;13.192;2024-03-08T10:39:22;16.03;;;10.67;;
9809;SDS011;4944;52.514;13.192;2024-03-08T10:41:52;13.73;;;10.63;;
9809;SDS011;4944;52.514;13.192;2024-03-08T10:44:40;14.93;;;10.67;;
9809;SDS011;4944;52.514;13.192;2024-03-08T10:47:22;11.50;;;10.10;;
9809;SDS011;4944;52.514;13.192;2024-03-08T10:49:58;12.33;;;10.07;;
9809;SDS011;4944;52.514;13.192;2024-03-08T10:52:36;11.97;;;10.13;;
9809;SDS011;4944;52.514;13.192;2024-03-08T10:55:03;11.23;;;9.93;;
9809;SDS011;4944;52.514;13.192;2024-03-08T10:57:37;14.37;;;10.27;;
9809;SDS011;4944;52.514;13.192;2024-03-08T11:00:05;15.30;;;9.53;;
9809;SDS011;4944;52.514;13.192;2024-03-08T11:02:35;10.80;;;9.47;;
9809;SDS011;4944;52.514;13.192;2024-03-08T11:05:03;12.10;;;9.30;;
9809;SDS011;4944;52.514;13.192;2024-03-08T11:07:33;9.47;;;8.53;;
9809;SDS011;4944;52.514;13.192;2024-03-08T11:10:03;13.47;;;9.33;;
9809;SDS011;4944;52.514;13.192;2024-03-08T11:12:35;12.47;;;10.93;;
9809;SDS011;4944;52.514;13.192;2024-03-08T11:15:09;14.80;;;12.30;;
9809;SDS011;4944;52.514;13.192;2024-03-08T11:17:41;16.33;;;12.17;;
9809;SDS011;4944;52.514;13.192;2024-03-08T11:20:12;14.47;;;12.63;;
9809;SDS011;4944;52.514;13.192;2024-03-08T11:22:47;13.63;;;12.23;;
9809;SDS011;4944;52.514;13.192;2024-03-08T11:25:36;17.60;;;12.50;;
9809;SDS011;4944;52.514;13.192;2024-03-08T11:28:10;14.70;;;12.30;;
9809;SDS011;4944;52.514;13.192;2024-03-08T11:30:43;15.30;;;11.80;;
9809;SDS011;4944;52.514;13.192;2024-03-08T11:33:12;14.00;;;12.23;;
9809;SDS011;4944;52.514;13.192;2024-03-08T11:35:39;33.77;;;13.43;;
9809;SDS011;4944;52.514;13.192;2024-03-08T11:38:10;13.50;;;12.07;;
9809;SDS011;4944;52.514;13.192;2024-03-08T11:40:40;14.37;;;11.17;;
9809;SDS011;4944;52.514;13.192;2024-03-08T11:43:08;15.23;;;11.70;;
9809;SDS011;4944;52.514;13.192;2024-03-08T11:45:35;12.47;;;11.00;;
9809;SDS011;4944;52.514;13.192;2024-03-08T11:48:03;14.20;;;11.23;;
9809;SDS011;4944;52.514;13.192;2024-03-08T11:50:31;13.37;;;10.80;;
9809;SDS011;4944;52.514;13.192;2024-03-08T11:53:02;22.50;;;11.67;;
9809;SDS011;4944;52.514;13.192;2024-03-08T11:55:30;13.63;;;11.00;;
9809;SDS011;4944;52.514;13.192;2024-03-08T11:58:02;11.77;;;10.57;;
9809;SDS011;4944;52.514;13.192;2024-03-08T12:00:33;13.77;;;11.00;;
9809;SDS011;4944;52.514;13.192;2024-03-08T12:03:03;12.37;;;10.57;;
9809;SDS011;4944;52.514;13.192;2024-03-08T12:05:32;14.57;;;10.13;;
9809;SDS011;4944;52.514;13.192;2024-03-08T12:07:59;14.90;;;11.23;;
9809;SDS011;4944;52.514;13.192;2024-03-08T12:10:26;11.97;;;10.77;;
9809;SDS011;4944;52.514;13.192;2024-03-08T12:12:54;12.63;;;10.97;;
9809;SDS011;4944;52.514;13.192;2024-03-08T12:15:26;12.67;;;10.70;;
9809;SDS011;4944;52.514;13.192;2024-03-08T12:17:54;14.23;;;11.43;;
9809;SDS011;4944;52.514;13.192;2024-03-08T12:20:23;15.27;;;11.77;;
9809;SDS011;4944;52.514;13.192;2024-03-08T12:22:51;14.20;;;11.33;;
9809;SDS011;4944;52.514;13.192;2024-03-08T12:25:21;12.37;;;11.00;;
9809;SDS011;4944;52.514;13.192;2024-03-08T12:27:48;12.70;;;11.10;;
9809;SDS011;4944;52.514;13.192;2024-03-08T12:30:18;13.13;;;11.50;;
9809;SDS011;4944;52.514;13.192;2024-03-08T12:32:52;11.87;;;10.33;;
9809;SDS011;4944;52.514;13.192;2024-03-08T12:35:22;12.47;;;10.40;;
9809;SDS011;4944;52.514;13.192;2024-03-08T12:37:50;14.23;;;9.80;;
9809;SDS011;4944;52.514;13.192;2024-03-08T12:40:18;12.07;;;9.57;;
9809;SDS011;4944;52.514;13.192;2024-03-08T12:42:52;14.00;;;10.57;;
9809;SDS011;4944;52.514;13.192;2024-03-08T12:45:18;10.03;;;8.93;;
9809;SDS011;4944;52.514;13.192;2024-03-08T12:47:47;9.73;;;8.73;;
9809;SDS011;4944;52.514;13.192;2024-03-08T12:50:16;11.90;;;10.63;;
9809;SDS011;4944;52.514;13.192;2024-03-08T12:52:43;12.60;;;10.90;;
9809;SDS011;4944;52.514;13.192;2024-03-08T12:55:10;15.13;;;12.13;;
9809;SDS011;4944;52.514;13.192;2024-03-08T12:57:37;16.73;;;12.80;;
9809;SDS011;4944;52.514;13.192;2024-03-08T13:00:05;12.97;;;11.67;;
9809;SDS011;4944;52.514;13.192;2024-03-08T13:02:38;14.53;;;12.23;;
9809;SDS011;4944;52.514;13.192;2024-03-08T13:05:05;13.50;;;12.00;;
9809;SDS011;4944;52.514;13.192;2024-03-08T13:07:36;16.07;;;11.50;;
9809;SDS011;4944;52.514;13.192;2024-03-08T13:10:03;14.37;;;12.47;;
9809;SDS011;4944;52.514;13.192;2024-03-08T13:12:32;13.93;;;12.43;;
9809;SDS011;4944;52.514;13.192;2024-03-08T13:15:01;13.60;;;11.73;;
9809;SDS011;4944;52.514;13.192;2024-03-08T13:17:30;16.60;;;12.30;;
9809;SDS011;4944;52.514;13.192;2024-03-08T13:19:57;15.80;;;12.70;;
9809;SDS011;4944;52.514;13.192;2024-03-08T13:22:24;17.83;;;11.37;;
9809;SDS011;4944;52.514;13.192;2024-03-08T13:24:52;15.50;;;11.80;;
9809;SDS011;4944;52.514;13.192;2024-03-08T13:27:19;13.33;;;12.03;;
9809;SDS011;4944;52.514;13.192;2024-03-08T13:29:47;14.47;;;11.37;;
9809;SDS011;4944;52.514;13.192;2024-03-08T13:32:14;13.07;;;11.67;;
9809;SDS011;4944;52.514;13.192;2024-03-08T13:34:42;13.87;;;11.77;;
9809;SDS011;4944;52.514;13.192;2024-03-08T13:37:10;13.70;;;11.80;;
9809;SDS011;4944;52.514;13.192;2024-03-08T13:39:41;13.00;;;11.60;;
9809;SDS011;4944;52.514;13.192;2024-03-08T13:42:10;13.97;;;11.53;;
9809;SDS011;4944;52.514;13.192;2024-03-08T13:44:43;14.67;;;11.83;;
9809;SDS011;4944;52.514;13.192;2024-03-08T13:47:10;13.27;;;11.77;;
9809;SDS011;4944;52.514;13.192;2024-03-08T13:49:38;18.00;;;12.37;;
9809;SDS011;4944;52.514;13.192;2024-03-08T13:52:05;18.93;;;12.53;;
9809;SDS011;4944;52.514;13.192;2024-03-08T13:54:33;13.90;;;11.57;;
9809;SDS011;4944;52.514;13.192;2024-03-08T13:57:00;14.77;;;11.70;;
9809;SDS011;4944;52.514;13.192;2024-03-08T13:59:30;13.33;;;11.50;;
9809;SDS011;4944;52.514;13.192;2024-03-08T14:01:58;15.50;;;12.27;;
9809;SDS011;4944;52.514;13.192;2024-03-08T14:04:26;14.27;;;11.67;;
9809;SDS011;4944;52.514;13.192;2024-03-08T14:06:53;13.63;;;11.23;;
9809;SDS011;4944;52.514;13.192;2024-03-08T14:09:22;22.10;;;12.10;;
9809;SDS011;4944;52.514;13.192;2024-03-08T14:11:50;13.00;;;11.17;;
9809;SDS011;4944;52.514;13.192;2024-03-08T14:14:19;13.27;;;11.10;;
9809;SDS011;4944;52.514;13.192;2024-03-08T14:16:49;13.40;;;10.80;;
9809;SDS011;4944;52.514;13.192;2024-03-08T14:19:19;12.43;;;11.13;;
9809;SDS011;4944;52.514;13.192;2024-03-08T14:21:46;14.03;;;11.67;;
9809;SDS011;4944;52.514;13.192;2024-03-08T14:24:14;14.63;;;11.10;;
9809;SDS011;4944;52.514;13.192;2024-03-08T14:26:41;13.57;;;11.17;;
9809;SDS011;4944;52.514;13.192;2024-03-08T14:29:08;16.43;;;10.50;;
9809;SDS011;4944;52.514;13.192;2024-03-08T14:31:36;14.63;;;10.70;;
9809;SDS011;4944;52.514;13.192;2024-03-08T14:34:04;43.57;;;12.77;;
9809;SDS011;4944;52.514;13.192;2024-03-08T14:36:32;17.07;;;11.20;;
9809;SDS011;4944;52.514;13.192;2024-03-08T14:38:59;13.83;;;11.43;;
9809;SDS011;4944;52.514;13.192;2024-03-08T14:41:26;21.67;;;10.53;;
9809;SDS011;4944;52.514;13.192;2024-03-08T14:43:53;11.57;;;10.37;;
9809;SDS011;4944;52.514;13.192;2024-03-08T14:46:20;12.57;;;9.53;;